Time;durP1;ratioP1;P1;durP2;ratioP2;P2;SDS_P1;SDS_P2;PMS_P1;PMS_P2;Temp;Humidity;BMP_temperature;BMP_pressure;BME280_temperature;BME280_humidity;BME280_pressure;Samples;Min_cycle;Max_cycle;Signal;HPM_P1;HPM_P2
2022/10/08 00:01:33;;;;;;;3.35;1.08;;;12.70;99.90;;;;;;5035491;28;20048;-78
2022/10/08 00:03:59;;;;;;;2.45;0.90;;;12.60;99.90;;;;;;5054069;28;20045;-79
2022/10/08 00:06:28;;;;;;;1.73;0.88;;;12.60;99.90;;;;;;5060256;28;20521;-79
2022/10/08 00:09:01;;;;;;;2.20;0.90;;;12.60;99.90;;;;;;5052363;28;20044;-79
2022/10/08 00:11:37;;;;;;;2.78;1.30;;;12.60;99.90;;;;;;5051455;28;20043;-79
2022/10/08 00:14:04;;;;;;;4.18;1.13;;;12.60;99.90;;;;;;5035285;28;20578;-79
2022/10/08 00:16:40;;;;;;;2.97;1.02;;;12.50;99.90;;;;;;5035264;28;20479;-79
2022/10/08 00:19:10;;;;;;;4.90;1.13;;;12.50;99.90;;;;;;5055979;28;20505;-79
2022/10/08 00:21:37;;;;;;;5.03;0.77;;;12.50;99.90;;;;;;5051832;28;20044;-80
2022/10/08 00:24:05;;;;;;;2.47;1.00;;;12.50;99.90;;;;;;5051417;28;20068;-81
2022/10/08 00:26:32;;;;;;;1.27;0.80;;;12.50;99.90;;;;;;5051893;28;20441;-81
2022/10/08 00:29:01;;;;;;;2.13;0.60;;;12.40;99.90;;;;;;5051956;28;20033;-81
2022/10/08 00:31:31;;;;;;;3.88;0.73;;;12.40;99.90;;;;;;5051802;28;20491;-80
2022/10/08 00:33:59;;;;;;;0.75;0.75;;;12.40;99.90;;;;;;5051451;28;20037;-80
2022/10/08 00:36:27;;;;;;;0.80;0.60;;;12.40;99.90;;;;;;5052057;28;20555;-79
2022/10/08 00:38:57;;;;;;;1.55;0.73;;;12.40;99.90;;;;;;5062269;28;20135;-79
2022/10/08 00:41:25;;;;;;;1.98;0.57;;;12.40;99.90;;;;;;5055054;28;20044;-78
2022/10/08 00:43:57;;;;;;;2.80;0.90;;;12.40;99.90;;;;;;5035611;28;20487;-79
2022/10/08 00:46:27;;;;;;;0.30;0.30;;;12.40;99.90;;;;;;5084901;28;20556;-78
2022/10/08 00:48:58;;;;;;;1.25;0.70;;;12.40;99.90;;;;;;5052879;28;20036;-79
2022/10/08 00:51:24;;;;;;;1.50;0.70;;;12.40;99.90;;;;;;5051049;28;20112;-79
2022/10/08 00:53:51;;;;;;;1.33;0.75;;;12.40;99.90;;;;;;5034896;28;20402;-79
2022/10/08 00:56:17;;;;;;;1.80;0.43;;;12.40;99.90;;;;;;5051547;28;20491;-79
2022/10/08 00:58:43;;;;;;;1.65;0.60;;;12.40;99.90;;;;;;5029210;28;20036;-79
2022/10/08 01:01:10;;;;;;;1.67;0.57;;;12.40;99.90;;;;;;5034370;28;20029;-78
2022/10/08 01:03:36;;;;;;;4.80;0.95;;;12.40;99.90;;;;;;5051469;28;20055;-79
2022/10/08 01:06:11;;;;;;;1.48;0.45;;;12.40;99.90;;;;;;5051487;28;20045;-79
2022/10/08 01:08:53;;;;;;;1.98;0.75;;;12.40;99.90;;;;;;5051421;28;20045;-79
2022/10/08 01:11:49;;;;;;;2.28;0.52;;;12.40;99.90;;;;;;5066415;28;20364;-80
2022/10/08 01:14:34;;;;;;;2.67;0.65;;;12.40;99.90;;;;;;5044812;28;20179;-80
2022/10/08 01:17:19;;;;;;;1.42;0.60;;;12.40;99.90;;;;;;5053323;28;20052;-80
2022/10/08 01:20:22;;;;;;;0.40;0.30;;;12.40;99.90;;;;;;5056205;28;20060;-80
2022/10/08 01:23:23;;;;;;;1.40;0.77;;;12.40;99.90;;;;;;5062355;28;20044;-79
2022/10/08 01:25:55;;;;;;;0.80;0.47;;;12.30;99.90;;;;;;5054730;28;20045;-79
2022/10/08 01:28:47;;;;;;;2.30;0.60;;;12.30;99.90;;;;;;5054833;28;20422;-80
2022/10/08 01:31:36;;;;;;;0.80;0.38;;;12.20;99.90;;;;;;5063501;28;20051;-81
2022/10/08 01:34:04;;;;;;;3.20;0.80;;;12.20;99.90;;;;;;5058612;28;20041;-80
2022/10/08 01:36:42;;;;;;;2.72;0.57;;;12.20;99.90;;;;;;5037924;28;20045;-80
2022/10/08 01:39:11;;;;;;;3.38;0.88;;;12.20;99.90;;;;;;5052371;28;20048;-80
2022/10/08 01:41:39;;;;;;;2.47;0.82;;;12.10;99.90;;;;;;5056319;28;20052;-81
2022/10/08 01:44:12;;;;;;;0.57;0.43;;;12.10;99.90;;;;;;5070656;28;20090;-80
2022/10/08 01:46:42;;;;;;;2.78;0.70;;;12.00;99.90;;;;;;5051574;28;20438;-81
2022/10/08 01:49:12;;;;;;;2.40;0.82;;;11.90;99.90;;;;;;5037628;28;20175;-80
2022/10/08 01:51:56;;;;;;;3.45;0.70;;;11.90;99.90;;;;;;5059392;28;20078;-80
2022/10/08 01:54:27;;;;;;;6.45;1.10;;;11.90;99.90;;;;;;5070950;28;20167;-80
2022/10/08 01:56:56;;;;;;;2.13;1.15;;;11.80;99.90;;;;;;5054599;28;20368;-80
2022/10/08 01:59:24;;;;;;;0.65;0.50;;;11.80;99.90;;;;;;5054190;28;20044;-81
2022/10/08 02:02:04;;;;;;;0.93;0.60;;;11.70;99.90;;;;;;5055975;28;20044;-78
2022/10/08 02:04:34;;;;;;;5.30;0.98;;;11.70;99.90;;;;;;5053670;28;20032;-78
2022/10/08 02:07:31;;;;;;;2.35;0.95;;;11.60;99.90;;;;;;5051106;28;20384;-78
2022/10/08 02:10:20;;;;;;;1.25;0.73;;;11.50;99.90;;;;;;5017327;28;20049;-79
2022/10/08 02:12:45;;;;;;;2.65;0.75;;;11.50;99.90;;;;;;5047177;28;20139;-79
2022/10/08 02:15:16;;;;;;;3.30;1.08;;;11.50;99.90;;;;;;5074416;28;20115;-79
2022/10/08 02:18:06;;;;;;;0.95;0.22;;;11.40;99.90;;;;;;5064350;28;20044;-80
2022/10/08 02:20:50;;;;;;;1.40;0.40;;;11.40;99.90;;;;;;5053797;28;20095;-80
2022/10/08 02:23:31;;;;;;;4.93;0.93;;;11.30;99.90;;;;;;5054718;28;20502;-80
2022/10/08 02:26:25;;;;;;;2.13;0.88;;;11.20;99.90;;;;;;5073804;28;20049;-80
2022/10/08 02:29:01;;;;;;;1.23;0.50;;;11.20;99.90;;;;;;5072599;28;20032;-80
2022/10/08 02:31:39;;;;;;;3.78;0.75;;;11.20;99.90;;;;;;5037113;28;20049;-80
2022/10/08 02:34:23;;;;;;;2.05;0.50;;;11.20;99.90;;;;;;5062309;28;20048;-80
2022/10/08 02:37:00;;;;;;;3.25;0.60;;;11.10;99.90;;;;;;5073463;28;20048;-79
2022/10/08 02:39:30;;;;;;;4.45;0.85;;;11.10;99.90;;;;;;5072159;28;20045;-80
2022/10/08 02:42:00;;;;;;;2.17;0.80;;;11.10;99.90;;;;;;5036615;28;20045;-80
2022/10/08 02:44:44;;;;;;;1.33;0.60;;;11.20;99.90;;;;;;5043798;28;20398;-80
2022/10/08 02:47:15;;;;;;;4.40;0.90;;;11.10;99.90;;;;;;5073379;28;20052;-80
2022/10/08 02:49:46;;;;;;;2.88;0.88;;;11.10;99.90;;;;;;5059638;28;20047;-80
2022/10/08 02:52:13;;;;;;;3.20;0.90;;;11.10;99.90;;;;;;5052858;28;20041;-80
2022/10/08 02:54:43;;;;;;;1.17;0.68;;;11.10;99.90;;;;;;5057832;28;20044;-80
2022/10/08 02:57:12;;;;;;;3.40;1.10;;;11.20;99.90;;;;;;5056475;28;20548;-80
2022/10/08 02:59:38;;;;;;;2.30;0.57;;;11.20;99.90;;;;;;5051517;28;20052;-80
2022/10/08 03:02:04;;;;;;;4.10;1.20;;;11.20;99.90;;;;;;5036237;28;20399;-80
2022/10/08 03:04:47;;;;;;;7.00;1.17;;;11.30;99.90;;;;;;5053287;28;20033;-80
2022/10/08 03:07:14;;;;;;;7.65;1.77;;;11.40;99.90;;;;;;5059284;28;20041;-80
2022/10/08 03:09:44;;;;;;;3.90;1.05;;;11.40;99.90;;;;;;5073334;28;20371;-81
2022/10/08 03:12:10;;;;;;;5.93;1.58;;;11.50;99.90;;;;;;5040900;28;20127;-80
2022/10/08 03:14:39;;;;;;;4.53;0.88;;;11.60;99.90;;;;;;5002423;28;20045;-80
2022/10/08 03:17:06;;;;;;;2.33;0.90;;;11.50;99.90;;;;;;5068241;28;20033;-81
2022/10/08 03:19:33;;;;;;;3.20;1.20;;;11.50;99.90;;;;;;5066493;28;20072;-80
2022/10/08 03:22:01;;;;;;;1.15;0.90;;;11.50;99.90;;;;;;5052567;28;20041;-80
2022/10/08 03:24:27;;;;;;;3.25;0.85;;;11.40;99.90;;;;;;5052290;28;20037;-78
2022/10/08 03:26:53;;;;;;;3.88;1.52;;;11.40;99.90;;;;;;5063218;28;20475;-79
2022/10/08 03:29:19;;;;;;;2.67;1.00;;;11.30;99.90;;;;;;5072921;28;20126;-79
2022/10/08 03:31:47;;;;;;;7.32;1.20;;;11.30;99.90;;;;;;5063266;28;20470;-78
2022/10/08 03:34:13;;;;;;;3.63;0.88;;;11.30;99.90;;;;;;5035257;28;20087;-79
2022/10/08 03:36:38;;;;;;;6.30;0.90;;;11.30;99.90;;;;;;5017930;28;20087;-79
2022/10/08 03:39:04;;;;;;;4.18;1.27;;;11.30;99.90;;;;;;5051787;28;20399;-79
2022/10/08 03:41:30;;;;;;;2.90;0.98;;;11.20;99.90;;;;;;5037336;28;20443;-79
2022/10/08 03:43:58;;;;;;;4.70;0.85;;;11.20;99.90;;;;;;5035815;28;20048;-79
2022/10/08 03:46:24;;;;;;;1.92;0.95;;;11.00;99.90;;;;;;5052260;28;20509;-79
2022/10/08 03:48:49;;;;;;;2.65;0.82;;;11.00;99.90;;;;;;5049829;28;20041;-79
2022/10/08 03:51:16;;;;;;;3.80;0.90;;;10.90;99.90;;;;;;5052418;28;20396;-79
2022/10/08 03:53:43;;;;;;;4.13;1.35;;;10.80;99.90;;;;;;5051825;28;20045;-78
2022/10/08 03:56:18;;;;;;;1.83;0.73;;;10.80;99.90;;;;;;5051002;28;20486;-78
2022/10/08 03:58:44;;;;;;;1.95;0.80;;;10.70;99.90;;;;;;5061693;28;20032;-80
2022/10/08 04:01:15;;;;;;;1.75;0.93;;;10.50;99.90;;;;;;5033817;28;20130;-80
2022/10/08 04:03:42;;;;;;;3.15;0.82;;;10.50;99.90;;;;;;5046433;28;20460;-80
2022/10/08 04:06:08;;;;;;;2.53;0.60;;;10.50;99.90;;;;;;5034645;28;20102;-80
2022/10/08 04:08:34;;;;;;;2.55;1.23;;;10.40;99.90;;;;;;5058837;28;20067;-80
2022/10/08 04:11:05;;;;;;;1.23;0.63;;;10.30;99.90;;;;;;5044331;28;20067;-80
2022/10/08 04:13:31;;;;;;;3.28;0.93;;;10.30;99.90;;;;;;5051539;28;20078;-79
2022/10/08 04:16:15;;;;;;;2.45;0.70;;;10.20;99.90;;;;;;5035267;28;20049;-79
2022/10/08 04:18:41;;;;;;;1.00;0.50;;;10.10;99.90;;;;;;5051706;28;20487;-78
2022/10/08 04:21:10;;;;;;;4.15;0.85;;;10.10;99.90;;;;;;5052036;28;20068;-78
2022/10/08 04:23:38;;;;;;;2.13;0.82;;;10.00;99.90;;;;;;5035295;28;20041;-78
2022/10/08 04:26:04;;;;;;;2.90;0.90;;;10.20;99.90;;;;;;5051846;28;20053;-80
2022/10/08 04:28:30;;;;;;;2.33;0.90;;;10.00;99.90;;;;;;5051500;28;20372;-81
2022/10/08 04:31:17;;;;;;;3.00;1.10;;;10.00;99.90;;;;;;5052270;28;20033;-80
2022/10/08 04:33:44;;;;;;;2.30;1.13;;;10.00;99.90;;;;;;5051624;28;20505;-80
2022/10/08 04:36:15;;;;;;;4.15;1.27;;;10.00;99.90;;;;;;5051644;28;20502;-80
2022/10/08 04:38:42;;;;;;;2.22;0.45;;;9.90;99.90;;;;;;5051702;28;20041;-80
2022/10/08 04:41:16;;;;;;;2.95;0.88;;;9.90;99.90;;;;;;5035221;28;20079;-80
2022/10/08 04:43:44;;;;;;;2.55;1.08;;;10.00;99.90;;;;;;5035262;28;20052;-80
2022/10/08 04:46:12;;;;;;;1.45;0.68;;;9.80;99.90;;;;;;5035245;28;20041;-80
2022/10/08 04:48:39;;;;;;;2.13;0.85;;;9.80;99.90;;;;;;5046635;28;20041;-78
2022/10/08 04:51:06;;;;;;;2.67;1.30;;;9.80;99.90;;;;;;5036365;28;20050;-78
2022/10/08 04:53:32;;;;;;;2.47;0.90;;;9.80;99.90;;;;;;5038954;28;20429;-78
2022/10/08 04:56:11;;;;;;;3.72;1.05;;;9.80;99.90;;;;;;5017680;28;20099;-78
2022/10/08 04:58:37;;;;;;;1.90;0.77;;;9.70;99.90;;;;;;5055344;28;20407;-78
2022/10/08 05:01:04;;;;;;;1.40;0.75;;;9.70;99.90;;;;;;5056412;28;20051;-78
2022/10/08 05:03:30;;;;;;;2.80;0.90;;;9.60;99.90;;;;;;5041821;28;20123;-80
2022/10/08 05:05:56;;;;;;;3.30;0.90;;;9.60;99.90;;;;;;5063551;28;20598;-79
2022/10/08 05:08:22;;;;;;;1.40;0.75;;;9.60;99.90;;;;;;5038360;28;20044;-80
2022/10/08 05:10:49;;;;;;;3.50;0.75;;;9.50;99.90;;;;;;5037989;28;20056;-80
2022/10/08 05:13:14;;;;;;;2.03;0.90;;;9.50;99.90;;;;;;5035147;28;20529;-80
2022/10/08 05:15:40;;;;;;;3.55;0.93;;;9.50;99.90;;;;;;5075184;28;20089;-80
2022/10/08 05:18:06;;;;;;;3.00;1.20;;;9.50;99.90;;;;;;5069636;28;20059;-80
2022/10/08 05:20:35;;;;;;;4.95;0.90;;;9.40;99.90;;;;;;5047036;28;20047;-80
2022/10/08 05:23:01;;;;;;;3.28;1.15;;;9.30;99.90;;;;;;5061551;28;20037;-80
2022/10/08 05:25:30;;;;;;;3.00;1.00;;;9.30;99.90;;;;;;5057962;28;20054;-80
2022/10/08 05:27:56;;;;;;;3.28;0.82;;;9.30;99.90;;;;;;5057384;28;20066;-80
2022/10/08 05:30:22;;;;;;;2.72;0.95;;;9.30;99.90;;;;;;5037821;28;20498;-80
2022/10/08 05:32:47;;;;;;;2.88;0.73;;;9.40;99.90;;;;;;5055271;28;20041;-80
2022/10/08 05:35:13;;;;;;;3.65;1.00;;;9.30;99.90;;;;;;5031705;28;20052;-80
2022/10/08 05:37:39;;;;;;;3.10;0.90;;;9.30;99.90;;;;;;5018449;28;20085;-78
2022/10/08 05:40:05;;;;;;;2.60;0.50;;;9.30;99.90;;;;;;5018128;28;20381;-78
2022/10/08 05:42:31;;;;;;;2.13;0.85;;;9.30;99.90;;;;;;5032959;28;20487;-78
2022/10/08 05:44:56;;;;;;;1.48;0.95;;;9.30;99.90;;;;;;5053559;28;20045;-78
2022/10/08 05:47:22;;;;;;;1.70;0.85;;;9.30;99.90;;;;;;5056269;28;20041;-78
2022/10/08 05:49:48;;;;;;;4.85;1.38;;;9.90;99.90;;;;;;5042197;28;20510;-78
2022/10/08 05:52:13;;;;;;;2.05;0.80;;;9.30;99.90;;;;;;5048938;28;20095;-78
2022/10/08 05:54:39;;;;;;;2.40;0.65;;;9.30;99.90;;;;;;5060277;28;20045;-79
2022/10/08 05:57:05;;;;;;;1.23;0.65;;;9.20;99.90;;;;;;5072726;28;20045;-79
2022/10/08 05:59:30;;;;;;;3.10;0.80;;;9.20;99.90;;;;;;5058195;28;20434;-79
2022/10/08 06:01:56;;;;;;;4.10;0.77;;;9.20;99.90;;;;;;5057386;28;20099;-79
2022/10/08 06:04:22;;;;;;;6.10;1.30;;;9.20;99.90;;;;;;5054040;28;20136;-79
2022/10/08 06:06:47;;;;;;;3.80;0.70;;;9.30;99.90;;;;;;5058157;28;20041;-79
2022/10/08 06:09:19;;;;;;;3.60;1.20;;;9.30;99.90;;;;;;5036640;28;20391;-79
2022/10/08 06:11:45;;;;;;;3.42;0.80;;;9.40;99.90;;;;;;5052244;28;20130;-81
2022/10/08 06:14:13;;;;;;;3.95;0.90;;;9.40;99.90;;;;;;5064233;28;20059;-80
2022/10/08 06:16:39;;;;;;;0.88;0.55;;;9.50;99.90;;;;;;5054221;28;20040;-79
2022/10/08 06:19:06;;;;;;;1.65;0.65;;;9.80;99.90;;;;;;5050242;28;20045;-79
2022/10/08 06:21:33;;;;;;;6.30;1.17;;;9.60;99.90;;;;;;5054587;28;20394;-79
2022/10/08 06:24:01;;;;;;;4.57;0.90;;;9.70;99.90;;;;;;5051889;28;20044;-79
2022/10/08 06:26:31;;;;;;;4.13;0.80;;;9.90;99.90;;;;;;5053977;28;20049;-80
2022/10/08 06:28:57;;;;;;;2.42;0.80;;;10.30;99.90;;;;;;5053988;28;20478;-82
2022/10/08 06:31:23;;;;;;;2.47;0.80;;;10.60;99.90;;;;;;5052517;28;20040;-81
2022/10/08 06:33:49;;;;;;;4.18;1.33;;;10.70;99.90;;;;;;5053711;28;20494;-80
2022/10/08 06:36:22;;;;;;;5.18;1.10;;;10.70;99.90;;;;;;5035948;28;20079;-80
2022/10/08 06:39:10;;;;;;;5.60;1.23;;;10.70;99.90;;;;;;5053773;28;20052;-80
2022/10/08 06:41:36;;;;;;;4.15;0.93;;;10.60;99.90;;;;;;5036543;28;20047;-80
2022/10/08 06:44:05;;;;;;;2.97;0.80;;;10.60;99.90;;;;;;5034110;28;20037;-80
2022/10/08 06:46:32;;;;;;;3.38;0.82;;;10.50;99.90;;;;;;5052750;28;20041;-80
2022/10/08 06:48:59;;;;;;;1.88;0.63;;;10.60;99.90;;;;;;5050043;28;20036;-80
2022/10/08 06:51:25;;;;;;;3.95;1.02;;;10.60;99.90;;;;;;5036313;28;20048;-80
2022/10/08 06:53:56;;;;;;;2.53;1.17;;;10.60;99.90;;;;;;5062645;28;20098;-80
2022/10/08 06:56:22;;;;;;;7.32;1.52;;;10.60;99.90;;;;;;5053290;28;20044;-80
2022/10/08 06:58:49;;;;;;;2.72;0.90;;;10.60;99.90;;;;;;5036662;28;20051;-79
2022/10/08 07:01:17;;;;;;;1.95;0.80;;;10.70;99.90;;;;;;5053228;28;20157;-79
2022/10/08 07:03:51;;;;;;;3.30;0.50;;;10.80;99.90;;;;;;5052558;28;20112;-79
2022/10/08 07:06:18;;;;;;;2.78;1.33;;;11.10;99.90;;;;;;5053140;28;20090;-79
2022/10/08 07:08:44;;;;;;;8.07;1.38;;;12.20;99.90;;;;;;5060355;28;20048;-79
2022/10/08 07:11:15;;;;;;;3.30;1.20;;;13.60;99.90;;;;;;5050118;28;20040;-80
2022/10/08 07:13:41;;;;;;;2.80;0.80;;;15.00;99.90;;;;;;5051734;28;20201;-79
2022/10/08 07:16:13;;;;;;;2.63;0.63;;;16.30;99.90;;;;;;5049369;28;20111;-80
2022/10/08 07:18:40;;;;;;;5.47;0.85;;;17.50;99.90;;;;;;5040981;28;20402;-78
2022/10/08 07:21:07;;;;;;;3.00;1.42;;;18.50;99.90;;;;;;5072429;28;20454;-78
2022/10/08 07:23:33;;;;;;;5.28;1.00;;;19.40;99.90;;;;;;5053436;28;20037;-79
2022/10/08 07:26:02;;;;;;;2.75;0.50;;;20.00;99.90;;;;;;5033808;28;20093;-79
2022/10/08 07:28:31;;;;;;;4.63;0.90;;;20.70;99.90;;;;;;5052328;28;20033;-79
2022/10/08 07:31:01;;;;;;;3.47;1.25;;;21.30;99.90;;;;;;5051455;28;20043;-79
2022/10/08 07:33:28;;;;;;;2.55;0.85;;;21.60;99.90;;;;;;5035585;28;20049;-77
2022/10/08 07:35:53;;;;;;;5.20;1.25;;;22.10;99.90;;;;;;5053835;28;20386;-81
2022/10/08 07:38:19;;;;;;;5.05;1.08;;;22.30;97.50;;;;;;5003797;28;20045;-81
2022/10/08 07:40:47;;;;;;;1.55;0.93;;;22.50;98.00;;;;;;5031443;28;20046;-80
2022/10/08 07:43:13;;;;;;;2.47;1.17;;;22.80;96.10;;;;;;5072463;28;20052;-81
2022/10/08 07:45:44;;;;;;;2.60;0.65;;;23.00;94.90;;;;;;5052392;28;20037;-81
2022/10/08 07:48:10;;;;;;;2.63;1.33;;;23.40;94.50;;;;;;5035955;28;20123;-81
2022/10/08 07:50:36;;;;;;;1.00;0.70;;;23.80;95.70;;;;;;5054177;28;20116;-81
2022/10/08 07:53:02;;;;;;;2.30;0.82;;;24.10;94.70;;;;;;5036198;28;20045;-81
2022/10/08 07:55:28;;;;;;;2.65;0.70;;;24.30;93.10;;;;;;5052661;28;20040;-81
2022/10/08 07:57:54;;;;;;;4.47;1.25;;;24.60;93.20;;;;;;5019959;28;20589;-81
2022/10/08 08:00:19;;;;;;;3.80;1.20;;;24.50;90.70;;;;;;5020011;28;20052;-81
2022/10/08 08:02:47;;;;;;;2.38;1.40;;;24.40;92.20;;;;;;5055497;28;20130;-81
2022/10/08 08:05:12;;;;;;;1.92;0.73;;;24.20;92.60;;;;;;5032842;28;20034;-82
2022/10/08 08:07:38;;;;;;;2.72;0.90;;;24.00;91.00;;;;;;5043334;28;20051;-81
2022/10/08 08:10:04;;;;;;;2.50;1.25;;;23.00;91.70;;;;;;5036085;28;20460;-81
2022/10/08 08:12:30;;;;;;;2.30;0.80;;;21.90;93.20;;;;;;5049702;28;20133;-80
2022/10/08 08:14:56;;;;;;;0.90;0.47;;;21.40;94.00;;;;;;5067409;28;20194;-81
2022/10/08 08:17:21;;;;;;;1.35;0.50;;;21.50;95.90;;;;;;5032633;28;20041;-81
2022/10/08 08:19:47;;;;;;;2.53;1.08;;;22.10;95.80;;;;;;5016184;28;20041;-81
2022/10/08 08:22:13;;;;;;;2.15;1.33;;;22.90;92.40;;;;;;5045414;28;20118;-80
2022/10/08 08:24:38;;;;;;;1.83;1.00;;;23.80;94.30;;;;;;5049465;28;20043;-80
2022/10/08 08:27:04;;;;;;;2.63;0.85;;;24.80;92.30;;;;;;5039599;28;20044;-80
2022/10/08 08:29:30;;;;;;;2.78;0.55;;;25.50;90.60;;;;;;5038611;28;20486;-80
2022/10/08 08:31:56;;;;;;;1.70;0.50;;;26.10;90.00;;;;;;5038773;28;20037;-80
2022/10/08 08:34:23;;;;;;;2.92;0.63;;;25.90;85.60;;;;;;5058202;28;20040;-81
2022/10/08 08:36:52;;;;;;;1.60;0.50;;;25.00;87.00;;;;;;5062903;28;20045;-81
2022/10/08 08:39:26;;;;;;;2.08;0.90;;;25.00;90.30;;;;;;5055851;28;20098;-81
2022/10/08 08:42:20;;;;;;;1.58;0.82;;;24.30;85.10;;;;;;5039472;28;20048;-81
2022/10/08 08:44:59;;;;;;;2.80;0.90;;;22.90;88.60;;;;;;5055058;28;20045;-81
2022/10/08 08:47:48;;;;;;;1.23;0.60;;;20.80;91.20;;;;;;5054921;28;20043;-81
2022/10/08 08:50:13;;;;;;;3.03;0.77;;;19.60;93.00;;;;;;5034216;28;20475;-80
2022/10/08 08:52:41;;;;;;;0.77;0.50;;;19.10;94.10;;;;;;5055609;28;20167;-80
2022/10/08 08:55:15;;;;;;;1.40;0.45;;;19.60;93.80;;;;;;5055215;28;20457;-80
2022/10/08 08:57:53;;;;;;;1.35;0.50;;;20.80;92.10;;;;;;5055902;28;20036;-82
2022/10/08 09:00:22;;;;;;;2.90;0.90;;;21.80;90.60;;;;;;5055908;28;20036;-82
2022/10/08 09:03:05;;;;;;;0.75;0.40;;;22.30;90.90;;;;;;5038246;28;20037;-81
2022/10/08 09:05:34;;;;;;;1.67;0.52;;;22.70;88.80;;;;;;5055056;28;20071;-82
2022/10/08 09:08:14;;;;;;;0.82;0.43;;;23.70;90.50;;;;;;5038416;28;20037;-82
2022/10/08 09:10:56;;;;;;;3.13;0.55;;;24.40;85.40;;;;;;5053753;28;20158;-82
2022/10/08 09:13:38;;;;;;;1.75;0.90;;;25.20;84.00;;;;;;5053916;28;20186;-82
2022/10/08 09:16:04;;;;;;;2.28;0.88;;;25.20;85.70;;;;;;5069465;28;20044;-81
2022/10/08 09:18:30;;;;;;;3.60;1.17;;;25.30;83.60;;;;;;5054945;28;20041;-81
2022/10/08 09:20:56;;;;;;;2.83;0.68;;;24.80;84.40;;;;;;5038506;28;20391;-81
2022/10/08 09:23:24;;;;;;;2.92;0.90;;;23.90;83.50;;;;;;5049403;28;20045;-81
2022/10/08 09:26:14;;;;;;;1.58;0.50;;;23.10;88.60;;;;;;5054200;28;20049;-81
2022/10/08 09:28:43;;;;;;;4.85;1.73;;;23.40;85.20;;;;;;5053633;28;20437;-81
2022/10/08 09:31:31;;;;;;;4.95;1.52;;;23.90;86.50;;;;;;5053368;28;20402;-81
2022/10/08 09:34:09;;;;;;;3.65;1.08;;;24.50;85.00;;;;;;5032104;28;20089;-81
2022/10/08 09:36:41;;;;;;;1.65;0.82;;;24.90;83.00;;;;;;5049445;28;20514;-80
2022/10/08 09:39:16;;;;;;;1.95;0.73;;;;;;;;;;5046615;28;20044;-80
2022/10/08 09:41:44;;;;;;;7.93;1.30;;;25.90;82.90;;;;;;5054739;28;20047;-80
2022/10/08 09:44:22;;;;;;;1.05;0.28;;;26.40;79.20;;;;;;5053255;28;20657;-81
2022/10/08 09:47:02;;;;;;;1.92;0.50;;;26.10;77.90;;;;;;5051485;28;20044;-82
2022/10/08 09:49:33;;;;;;;1.40;0.63;;;25.20;80.80;;;;;;5037854;28;20174;-82
2022/10/08 09:52:26;;;;;;;3.70;1.02;;;25.30;79.30;;;;;;5037883;28;20041;-82
2022/10/08 09:55:01;;;;;;;2.47;1.00;;;25.80;78.80;;;;;;5050130;28;20476;-82
2022/10/08 09:57:28;;;;;;;2.33;1.17;;;26.30;79.90;;;;;;5045761;28;20041;-81
2022/10/08 09:59:58;;;;;;;4.90;1.15;;;26.30;77.10;;;;;;5054784;28;20086;-82
2022/10/08 10:02:28;;;;;;;7.00;0.95;;;26.30;75.50;;;;;;5054444;28;20441;-82
2022/10/08 10:04:55;;;;;;;2.63;0.52;;;26.30;74.20;;;;;;5054926;28;20132;-80
2022/10/08 10:07:22;;;;;;;2.97;0.95;;;26.20;75.50;;;;;;5040539;28;20047;-80
2022/10/08 10:09:56;;;;;;;2.30;0.63;;;26.10;73.50;;;;;;5038490;28;20044;-80
2022/10/08 10:12:27;;;;;;;2.80;0.93;;;25.40;74.00;;;;;;5038208;28;20108;-80
2022/10/08 10:15:00;;;;;;;1.73;0.77;;;25.20;74.80;;;;;;5050833;28;20037;-80
2022/10/08 10:17:38;;;;;;;1.77;0.90;;;24.50;77.10;;;;;;5041391;28;20112;-80
2022/10/08 10:20:09;;;;;;;2.75;0.75;;;24.80;76.00;;;;;;5031630;28;20045;-81
2022/10/08 10:23:00;;;;;;;1.48;0.68;;;25.40;76.00;;;;;;5049309;28;20041;-81
2022/10/08 10:25:33;;;;;;;1.42;0.60;;;25.50;75.00;;;;;;5018500;28;20048;-81
2022/10/08 10:28:11;;;;;;;3.97;0.98;;;25.20;74.40;;;;;;5066192;23;20084;-81
2022/10/08 10:30:51;;;;;;;1.08;0.70;;;24.90;74.50;;;;;;5057571;28;20444;-80
2022/10/08 10:33:22;;;;;;;3.78;0.68;;;24.40;74.70;;;;;;5074242;28;20047;-80
2022/10/08 10:35:58;;;;;;;2.33;0.68;;;23.70;76.40;;;;;;5056449;28;20127;-80
2022/10/08 10:38:35;;;;;;;5.20;1.35;;;24.00;79.60;;;;;;5055493;28;20055;-81
2022/10/08 10:41:30;;;;;;;3.03;0.75;;;24.50;79.60;;;;;;5069319;28;20040;-82
2022/10/08 10:43:59;;;;;;;7.30;1.40;;;25.50;77.50;;;;;;5072967;28;20087;-82
2022/10/08 10:46:40;;;;;;;5.40;0.98;;;26.10;77.40;;;;;;5059374;28;20479;-81
2022/10/08 10:49:21;;;;;;;4.22;0.77;;;26.50;77.70;;;;;;5071496;28;20486;-82
2022/10/08 10:52:19;;;;;;;2.42;1.05;;;25.00;74.60;;;;;;5056496;28;20043;-81
2022/10/08 10:55:07;;;;;;;2.72;0.45;;;23.90;78.20;;;;;;5072973;28;20052;-82
2022/10/08 10:58:03;;;;;;;3.10;0.82;;;24.10;80.80;;;;;;5073183;28;20097;-81
2022/10/08 11:00:31;;;;;;;3.28;1.05;;;23.80;77.30;;;;;;5056651;28;20123;-81
2022/10/08 11:03:25;;;;;;;1.15;0.60;;;23.50;79.60;;;;;;5073066;28;20051;-81
2022/10/08 11:06:18;;;;;;;2.05;0.50;;;24.10;76.80;;;;;;5072653;28;20036;-81
2022/10/08 11:09:14;;;;;;;1.55;0.68;;;24.70;79.50;;;;;;5052066;28;20368;-82
2022/10/08 11:11:46;;;;;;;4.50;0.93;;;25.00;76.60;;;;;;5055564;28;20071;-80
2022/10/08 11:14:27;;;;;;;2.47;1.23;;;25.20;77.50;;;;;;5072464;28;20048;-80
2022/10/08 11:17:02;;;;;;;7.35;1.13;;;24.90;76.10;;;;;;5056381;28;20047;-80
2022/10/08 11:19:54;;;;;;;2.97;0.40;;;23.90;79.20;;;;;;5057561;28;20497;-80
2022/10/08 11:22:44;;;;;;;2.20;0.70;;;23.80;77.60;;;;;;5054242;28;20451;-80
2022/10/08 11:25:22;;;;;;;3.08;0.68;;;23.90;77.50;;;;;;5054756;28;20044;-80
2022/10/08 11:27:57;;;;;;;2.80;1.45;;;24.20;77.50;;;;;;5071687;28;20060;-81
2022/10/08 11:30:41;;;;;;;3.27;0.97;;;24.50;78.20;;;;;;5072330;28;20040;-82
2022/10/08 11:33:12;;;;;;;2.70;0.88;;;24.30;77.70;;;;;;5071858;28;20784;-81
2022/10/08 11:36:03;;;;;;;6.00;1.10;;;24.00;77.10;;;;;;5072544;28;20181;-81
2022/10/08 11:38:58;;;;;;;1.17;0.57;;;24.00;78.60;;;;;;5056268;28;20037;-81
2022/10/08 11:41:28;;;;;;;3.13;0.85;;;22.90;78.80;;;;;;5033310;28;20045;-81
2022/10/08 11:43:58;;;;;;;4.18;0.85;;;22.90;79.70;;;;;;5072100;28;20146;-81
2022/10/08 11:46:27;;;;;;;1.40;0.63;;;22.70;78.90;;;;;;5072619;28;20037;-81
2022/10/08 11:49:00;;;;;;;3.28;1.13;;;21.80;82.00;;;;;;5055580;28;20509;-81
2022/10/08 11:51:31;;;;;;;4.75;0.93;;;21.00;82.70;;;;;;5055893;28;20494;-82
2022/10/08 11:54:29;;;;;;;1.05;0.50;;;20.40;83.60;;;;;;5054776;28;20123;-82
2022/10/08 11:57:15;;;;;;;1.85;0.70;;;19.80;84.30;;;;;;5072431;28;20044;-81
2022/10/08 11:59:44;;;;;;;3.60;1.00;;;19.30;87.30;;;;;;5072750;28;20052;-82
2022/10/08 12:02:24;;;;;;;6.15;1.13;;;18.80;86.60;;;;;;5055827;28;20043;-81
2022/10/08 12:04:52;;;;;;;3.80;1.00;;;18.70;89.30;;;;;;5071477;28;20106;-81
2022/10/08 12:07:32;;;;;;;4.82;0.85;;;18.50;88.80;;;;;;5072345;28;20083;-82
2022/10/08 12:10:23;;;;;;;3.55;1.10;;;18.60;89.90;;;;;;5060503;28;20081;-81
2022/10/08 12:12:49;;;;;;;3.40;1.10;;;18.60;90.30;;;;;;5072207;28;20063;-81
2022/10/08 12:15:24;;;;;;;2.67;1.00;;;18.40;90.50;;;;;;5055688;28;20078;-81
2022/10/08 12:17:57;;;;;;;1.55;0.47;;;18.30;90.90;;;;;;5041412;28;20459;-81
2022/10/08 12:20:28;;;;;;;2.22;0.88;;;18.10;90.60;;;;;;5072103;28;20052;-80
2022/10/08 12:23:00;;;;;;;4.47;1.58;;;17.80;91.80;;;;;;5072436;28;20040;-80
2022/10/08 12:25:34;;;;;;;2.97;0.75;;;17.90;91.90;;;;;;5071393;28;20040;-80
2022/10/08 12:28:19;;;;;;;0.45;0.30;;;17.80;90.20;;;;;;5072358;28;20048;-80
2022/10/08 12:30:53;;;;;;;4.80;1.20;;;18.00;90.60;;;;;;5041566;28;20044;-80
2022/10/08 12:33:20;;;;;;;4.07;0.70;;;18.50;90.60;;;;;;5049256;28;20045;-80
2022/10/08 12:36:02;;;;;;;2.13;0.85;;;19.10;90.10;;;;;;5068483;28;20090;-81
2022/10/08 12:38:33;;;;;;;0.90;0.50;;;19.50;88.60;;;;;;5072269;28;20162;-81
2022/10/08 12:41:23;;;;;;;1.58;0.60;;;19.20;90.30;;;;;;5055728;28;20048;-81
2022/10/08 12:44:18;;;;;;;5.10;1.25;;;18.60;90.40;;;;;;5054316;28;20048;-80
2022/10/08 12:47:11;;;;;;;2.88;0.70;;;18.10;91.40;;;;;;5048541;28;20041;-80
2022/10/08 12:49:51;;;;;;;3.00;0.70;;;18.00;91.90;;;;;;5066634;28;20033;-81
2022/10/08 12:52:18;;;;;;;3.08;1.08;;;17.70;91.60;;;;;;5046566;28;20043;-81
2022/10/08 12:54:58;;;;;;;2.28;0.70;;;17.50;91.80;;;;;;5071626;28;20048;-81
2022/10/08 12:57:43;;;;;;;1.33;0.73;;;17.10;92.80;;;;;;5051902;28;20527;-81
2022/10/08 13:00:10;;;;;;;5.40;1.17;;;16.80;93.80;;;;;;5045239;28;20079;-81
2022/10/08 13:02:39;;;;;;;4.10;0.85;;;16.80;95.20;;;;;;5070024;28;20053;-81
2022/10/08 13:05:29;;;;;;;0.82;0.35;;;16.90;94.80;;;;;;5072208;28;20382;-81
2022/10/08 13:07:55;;;;;;;3.35;0.45;;;16.70;94.90;;;;;;5072420;28;20036;-79
2022/10/08 13:10:28;;;;;;;1.38;0.45;;;16.60;96.10;;;;;;5053142;28;20154;-80
2022/10/08 13:13:05;;;;;;;0.43;0.35;;;16.60;96.20;;;;;;5056566;28;20041;-79
2022/10/08 13:15:33;;;;;;;3.63;1.17;;;16.60;96.30;;;;;;5075605;28;20036;-79